sensor_id;sensor_type;location;lat;lon;timestamp;pressure;altitude;pressure_sealevel;temperature;humidity
54172;BME280;40076;52.354;4.970;2023-01-23T00:00:57;103683.25;;;3.86;100.00
54172;BME280;40076;52.354;4.970;2023-01-23T00:03:23;103676.06;;;3.87;100.00
54172;BME280;40076;52.354;4.970;2023-01-23T00:05:56;103670.91;;;3.85;100.00
54172;BME280;40076;52.354;4.970;2023-01-23T00:08:21;103670.50;;;3.88;100.00
54172;BME280;40076;52.354;4.970;2023-01-23T00:10:47;103666.97;;;3.81;100.00
54172;BME280;40076;52.354;4.970;2023-01-23T00:13:12;103681.41;;;3.80;100.00
54172;BME280;40076;52.354;4.970;2023-01-23T00:15:41;103669.66;;;3.81;100.00
54172;BME280;40076;52.354;4.970;2023-01-23T00:18:06;103668.63;;;3.82;100.00
54172;BME280;40076;52.354;4.970;2023-01-23T00:20:31;103675.63;;;3.83;100.00
54172;BME280;40076;52.354;4.970;2023-01-23T00:22:57;103675.63;;;3.83;100.00
54172;BME280;40076;52.354;4.970;2023-01-23T00:25:22;103669.44;;;3.83;100.00
54172;BME280;40076;52.354;4.970;2023-01-23T00:27:47;103671.53;;;3.81;100.00
54172;BME280;40076;52.354;4.970;2023-01-23T00:30:12;103665.94;;;3.82;100.00
54172;BME280;40076;52.354;4.970;2023-01-23T00:32:43;103657.94;;;3.82;100.00
54172;BME280;40076;52.354;4.970;2023-01-23T00:35:08;103658.56;;;3.84;100.00
54172;BME280;40076;52.354;4.970;2023-01-23T00:37:33;103654.84;;;3.85;100.00
54172;BME280;40076;52.354;4.970;2023-01-23T00:39:59;103650.53;;;3.84;100.00
54172;BME280;40076;52.354;4.970;2023-01-23T00:42:24;103651.34;;;3.85;100.00
54172;BME280;40076;52.354;4.970;2023-01-23T00:44:49;103640.84;;;3.83;100.00
54172;BME280;40076;52.354;4.970;2023-01-23T00:47:15;103646.19;;;3.83;100.00
54172;BME280;40076;52.354;4.970;2023-01-23T00:49:40;103631.81;;;3.84;100.00
54172;BME280;40076;52.354;4.970;2023-01-23T00:52:05;103640.03;;;3.83;100.00
54172;BME280;40076;52.354;4.970;2023-01-23T00:54:31;103631.81;;;3.84;100.00
54172;BME280;40076;52.354;4.970;2023-01-23T00:56:56;103635.50;;;3.83;100.00
54172;BME280;40076;52.354;4.970;2023-01-23T00:59:22;103638.19;;;3.83;100.00
54172;BME280;40076;52.354;4.970;2023-01-23T01:01:47;103645.19;;;3.84;100.00
54172;BME280;40076;52.354;4.970;2023-01-23T01:04:16;103655.88;;;3.84;100.00
54172;BME280;40076;52.354;4.970;2023-01-23T01:06:41;103640.84;;;3.83;100.00
54172;BME280;40076;52.354;4.970;2023-01-23T01:09:06;103639.84;;;3.84;100.00
54172;BME280;40076;52.354;4.970;2023-01-23T01:11:32;103633.66;;;3.84;100.00
54172;BME280;40076;52.354;4.970;2023-01-23T01:13:57;103641.88;;;3.82;100.00
54172;BME280;40076;52.354;4.970;2023-01-23T01:16:22;103643.97;;;3.80;100.00
54172;BME280;40076;52.354;4.970;2023-01-23T01:18:50;103647.22;;;3.82;100.00
54172;BME280;40076;52.354;4.970;2023-01-23T01:21:17;103652.56;;;3.82;100.00
54172;BME280;40076;52.354;4.970;2023-01-23T01:23:42;103651.75;;;3.82;100.00
54172;BME280;40076;52.354;4.970;2023-01-23T01:26:08;103655.47;;;3.81;100.00
54172;BME280;40076;52.354;4.970;2023-01-23T01:28:35;103658.94;;;3.81;100.00
54172;BME280;40076;52.354;4.970;2023-01-23T01:31:09;103656.28;;;3.81;100.00
54172;BME280;40076;52.354;4.970;2023-01-23T01:33:36;103658.94;;;3.81;100.00
54172;BME280;40076;52.354;4.970;2023-01-23T01:36:02;103657.94;;;3.82;100.00
54172;BME280;40076;52.354;4.970;2023-01-23T01:38:28;103662.44;;;3.82;100.00
54172;BME280;40076;52.354;4.970;2023-01-23T01:40:53;103656.06;;;3.83;100.00
54172;BME280;40076;52.354;4.970;2023-01-23T01:43:23;103657.72;;;3.84;100.00
54172;BME280;40076;52.354;4.970;2023-01-23T01:53:46;103662.88;;;3.79;100.00
54172;BME280;40076;52.354;4.970;2023-01-23T01:56:14;103664.94;;;3.77;100.00
54172;BME280;40076;52.354;4.970;2023-01-23T01:58:43;103662.88;;;3.79;100.00
54172;BME280;40076;52.354;4.970;2023-01-23T02:01:09;103659.78;;;3.82;100.00
54172;BME280;40076;52.354;4.970;2023-01-23T02:03:36;103670.28;;;3.83;100.00
54172;BME280;40076;52.354;4.970;2023-01-23T02:06:06;103674.81;;;3.83;100.00
54172;BME280;40076;52.354;4.970;2023-01-23T02:11:12;103680.16;;;3.83;100.00
54172;BME280;40076;52.354;4.970;2023-01-23T02:13:39;103672.94;;;3.83;100.00
54172;BME280;40076;52.354;4.970;2023-01-23T02:16:20;103682.63;;;3.84;100.00
54172;BME280;40076;52.354;4.970;2023-01-23T02:18:52;103685.50;;;3.83;100.00
54172;BME280;40076;52.354;4.970;2023-01-23T02:21:22;103689.00;;;3.83;100.00
54172;BME280;40076;52.354;4.970;2023-01-23T02:27:06;103679.94;;;3.84;100.00
54172;BME280;40076;52.354;4.970;2023-01-23T02:29:43;103691.69;;;3.83;100.00
54172;BME280;40076;52.354;4.970;2023-01-23T02:32:09;103685.50;;;3.83;100.00
54172;BME280;40076;52.354;4.970;2023-01-23T02:34:35;103688.38;;;3.81;100.00
54172;BME280;40076;52.354;4.970;2023-01-23T02:37:05;103690.25;;;3.81;100.00
54172;BME280;40076;52.354;4.970;2023-01-23T02:39:32;103697.03;;;3.83;100.00
54172;BME280;40076;52.354;4.970;2023-01-23T02:41:59;103694.34;;;3.83;100.00
54172;BME280;40076;52.354;4.970;2023-01-23T02:44:29;103687.97;;;3.84;100.00
54172;BME280;40076;52.354;4.970;2023-01-23T02:47:03;103677.28;;;3.84;100.00
54172;BME280;40076;52.354;4.970;2023-01-23T02:49:32;103676.25;;;3.85;100.00
54172;BME280;40076;52.354;4.970;2023-01-23T02:51:59;103677.91;;;3.86;100.00
54172;BME280;40076;52.354;4.970;2023-01-23T02:54:28;103685.94;;;3.86;100.00
54172;BME280;40076;52.354;4.970;2023-01-23T02:56:53;103679.94;;;3.84;100.00
54172;BME280;40076;52.354;4.970;2023-01-23T02:59:18;103683.25;;;3.86;100.00
54172;BME280;40076;52.354;4.970;2023-01-23T03:02:03;103697.47;;;3.87;100.00
54172;BME280;40076;52.354;4.970;2023-01-23T03:04:30;103695.41;;;3.89;100.00
54172;BME280;40076;52.354;4.970;2023-01-23T03:06:55;103695.41;;;3.89;100.00
54172;BME280;40076;52.354;4.970;2023-01-23T03:09:20;103694.78;;;3.87;100.00
54172;BME280;40076;52.354;4.970;2023-01-23T03:11:46;103689.63;;;3.85;100.00
54172;BME280;40076;52.354;4.970;2023-01-23T03:14:15;103697.47;;;3.87;100.00
54172;BME280;40076;52.354;4.970;2023-01-23T03:16:41;103701.16;;;3.86;100.00
54172;BME280;40076;52.354;4.970;2023-01-23T03:19:09;103703.00;;;3.85;100.00
54172;BME280;40076;52.354;4.970;2023-01-23T03:21:36;103706.50;;;3.86;100.00
54172;BME280;40076;52.354;4.970;2023-01-23T03:24:05;103713.50;;;3.87;100.00
54172;BME280;40076;52.354;4.970;2023-01-23T03:26:30;103715.16;;;3.88;100.00
54172;BME280;40076;52.354;4.970;2023-01-23T03:28:56;103713.31;;;3.88;100.00
54172;BME280;40076;52.354;4.970;2023-01-23T03:31:40;103710.63;;;3.88;100.00
54172;BME280;40076;52.354;4.970;2023-01-23T03:34:06;103717.84;;;3.88;100.00
54172;BME280;40076;52.354;4.970;2023-01-23T03:36:33;103718.03;;;3.86;100.00
54172;BME280;40076;52.354;4.970;2023-01-23T03:39:03;103713.31;;;3.88;100.00
54172;BME280;40076;52.354;4.970;2023-01-23T03:41:46;103715.16;;;3.88;100.00
54172;BME280;40076;52.354;4.970;2023-01-23T03:44:12;103717.84;;;3.88;100.00
54172;BME280;40076;52.354;4.970;2023-01-23T03:46:37;103719.47;;;3.89;100.00
54172;BME280;40076;52.354;4.970;2023-01-23T03:49:02;103716.81;;;3.89;100.00
54172;BME280;40076;52.354;4.970;2023-01-23T03:51:28;103717.59;;;3.89;100.00
54172;BME280;40076;52.354;4.970;2023-01-23T03:53:53;103729.94;;;3.91;100.00
54172;BME280;40076;52.354;4.970;2023-01-23T03:56:19;103720.91;;;3.92;100.00
54172;BME280;40076;52.354;4.970;2023-01-23T03:58:44;103719.88;;;3.93;100.00
54172;BME280;40076;52.354;4.970;2023-01-23T04:01:10;103724.41;;;3.92;100.00
54172;BME280;40076;52.354;4.970;2023-01-23T04:03:36;103716.38;;;3.92;100.00
54172;BME280;40076;52.354;4.970;2023-01-23T04:06:04;103716.38;;;3.92;100.00
54172;BME280;40076;52.354;4.970;2023-01-23T04:08:30;103713.50;;;3.94;100.00
54172;BME280;40076;52.354;4.970;2023-01-23T04:11:11;103708.16;;;3.94;100.00
54172;BME280;40076;52.354;4.970;2023-01-23T04:13:37;103709.81;;;3.95;100.00
54172;BME280;40076;52.354;4.970;2023-01-23T04:16:10;103702.41;;;3.97;100.00
54172;BME280;40076;52.354;4.970;2023-01-23T04:18:35;103701.34;;;3.91;100.00
54172;BME280;40076;52.354;4.970;2023-01-23T04:21:01;103709.56;;;3.89;100.00
54172;BME280;40076;52.354;4.970;2023-01-23T04:23:26;103705.88;;;3.91;100.00
54172;BME280;40076;52.354;4.970;2023-01-23T04:25:51;103712.88;;;3.92;100.00
54172;BME280;40076;52.354;4.970;2023-01-23T04:28:20;103713.06;;;3.90;100.00
54172;BME280;40076;52.354;4.970;2023-01-23T04:30:45;103712.88;;;3.92;100.00
54172;BME280;40076;52.354;4.970;2023-01-23T04:33:11;103722.56;;;3.93;100.00
54172;BME280;40076;52.354;4.970;2023-01-23T04:35:36;103715.75;;;3.90;100.00
54172;BME280;40076;52.354;4.970;2023-01-23T04:38:08;103713.91;;;3.91;100.00
54172;BME280;40076;52.354;4.970;2023-01-23T04:40:33;103717.22;;;3.93;100.00
54172;BME280;40076;52.354;4.970;2023-01-23T04:42:58;103724.41;;;3.92;100.00
54172;BME280;40076;52.354;4.970;2023-01-23T04:45:24;103724.22;;;3.94;100.00
54172;BME280;40076;52.354;4.970;2023-01-23T04:47:49;103731.41;;;3.93;100.00
54172;BME280;40076;52.354;4.970;2023-01-23T04:50:15;103730.38;;;3.94;100.00
54172;BME280;40076;52.354;4.970;2023-01-23T04:52:41;103733.06;;;3.94;100.00
54172;BME280;40076;52.354;4.970;2023-01-23T04:55:06;103734.09;;;3.93;100.00
54172;BME280;40076;52.354;4.970;2023-01-23T04:57:35;103738.41;;;3.94;100.00
54172;BME280;40076;52.354;4.970;2023-01-23T05:00:00;103736.56;;;3.95;100.00
54172;BME280;40076;52.354;4.970;2023-01-23T05:02:28;103743.97;;;3.93;100.00
54172;BME280;40076;52.354;4.970;2023-01-23T05:04:53;103731.22;;;3.95;100.00
54172;BME280;40076;52.354;4.970;2023-01-23T05:07:18;103736.75;;;3.93;100.00
54172;BME280;40076;52.354;4.970;2023-01-23T05:09:44;103736.75;;;3.93;100.00
54172;BME280;40076;52.354;4.970;2023-01-23T05:12:12;103739.44;;;3.93;100.00
54172;BME280;40076;52.354;4.970;2023-01-23T05:14:45;103739.25;;;3.95;100.00
54172;BME280;40076;52.354;4.970;2023-01-23T05:17:13;103732.22;;;3.94;100.00
54172;BME280;40076;52.354;4.970;2023-01-23T05:19:38;103725.22;;;3.93;100.00
54172;BME280;40076;52.354;4.970;2023-01-23T05:22:04;103723.78;;;3.90;100.00
54172;BME280;40076;52.354;4.970;2023-01-23T05:24:29;103722.16;;;3.89;100.00
54172;BME280;40076;52.354;4.970;2023-01-23T05:26:55;103720.28;;;3.89;100.00
54172;BME280;40076;52.354;4.970;2023-01-23T05:29:20;103726.25;;;3.92;100.00
54172;BME280;40076;52.354;4.970;2023-01-23T05:31:45;103728.94;;;3.92;100.00
54172;BME280;40076;52.354;4.970;2023-01-23T05:34:11;103733.25;;;3.93;100.00
54172;BME280;40076;52.354;4.970;2023-01-23T05:36:36;103737.78;;;3.92;100.00
54172;BME280;40076;52.354;4.970;2023-01-23T05:39:02;103736.97;;;3.92;100.00
54172;BME280;40076;52.354;4.970;2023-01-23T05:41:27;103736.97;;;3.92;100.00
54172;BME280;40076;52.354;4.970;2023-01-23T05:43:52;103739.44;;;3.93;100.00
54172;BME280;40076;52.354;4.970;2023-01-23T05:46:20;103740.25;;;3.94;100.00
54172;BME280;40076;52.354;4.970;2023-01-23T05:48:51;103744.78;;;3.93;100.00
54172;BME280;40076;52.354;4.970;2023-01-23T05:51:17;103747.47;;;3.93;100.00
54172;BME280;40076;52.354;4.970;2023-01-23T05:53:42;103739.44;;;3.93;100.00
54172;BME280;40076;52.354;4.970;2023-01-23T05:56:09;103750.97;;;3.94;100.00
54172;BME280;40076;52.354;4.970;2023-01-23T05:58:34;103747.25;;;3.95;100.00
54172;BME280;40076;52.354;4.970;2023-01-23T06:01:04;103743.13;;;3.92;100.00
54172;BME280;40076;52.354;4.970;2023-01-23T06:03:29;103747.47;;;3.93;100.00
54172;BME280;40076;52.354;4.970;2023-01-23T06:05:55;103747.47;;;3.93;100.00
54172;BME280;40076;52.354;4.970;2023-01-23T06:08:20;103743.97;;;3.93;100.00
54172;BME280;40076;52.354;4.970;2023-01-23T06:10:45;103746.44;;;3.94;100.00
54172;BME280;40076;52.354;4.970;2023-01-23T06:13:11;103753.44;;;3.95;100.00
54172;BME280;40076;52.354;4.970;2023-01-23T06:15:36;103748.28;;;3.94;100.00
54172;BME280;40076;52.354;4.970;2023-01-23T06:18:01;103751.59;;;3.96;100.00
54172;BME280;40076;52.354;4.970;2023-01-23T06:20:27;103758.78;;;3.95;100.00
54172;BME280;40076;52.354;4.970;2023-01-23T06:22:55;103760.44;;;3.96;100.00
54172;BME280;40076;52.354;4.970;2023-01-23T06:25:21;103759.63;;;3.96;100.00
54172;BME280;40076;52.354;4.970;2023-01-23T06:27:47;103750.97;;;3.94;100.00
54172;BME280;40076;52.354;4.970;2023-01-23T06:30:12;103761.66;;;3.94;100.00
54172;BME280;40076;52.354;4.970;2023-01-23T06:32:44;103768.03;;;3.93;100.00
54172;BME280;40076;52.354;4.970;2023-01-23T06:35:09;103760.00;;;3.93;100.00
54172;BME280;40076;52.354;4.970;2023-01-23T06:37:34;103762.06;;;3.91;100.00
54172;BME280;40076;52.354;4.970;2023-01-23T06:40:05;103764.53;;;3.92;100.00
54172;BME280;40076;52.354;4.970;2023-01-23T06:42:31;103760.00;;;3.93;100.00
54172;BME280;40076;52.354;4.970;2023-01-23T06:44:56;103760.84;;;3.93;100.00
54172;BME280;40076;52.354;4.970;2023-01-23T06:47:21;103751.16;;;3.92;100.00
54172;BME280;40076;52.354;4.970;2023-01-23T06:49:51;103754.66;;;3.93;100.00
54172;BME280;40076;52.354;4.970;2023-01-23T06:52:16;103762.06;;;3.91;100.00
54172;BME280;40076;52.354;4.970;2023-01-23T06:54:41;103756.72;;;3.91;100.00
54172;BME280;40076;52.354;4.970;2023-01-23T06:57:09;103757.72;;;3.89;100.00
54172;BME280;40076;52.354;4.970;2023-01-23T06:59:35;103758.97;;;3.87;100.00
54172;BME280;40076;52.354;4.970;2023-01-23T07:02:00;103761.66;;;3.87;100.00
54172;BME280;40076;52.354;4.970;2023-01-23T07:04:26;103770.50;;;3.87;100.00
54172;BME280;40076;52.354;4.970;2023-01-23T07:06:51;103766.19;;;3.86;100.00
54172;BME280;40076;52.354;4.970;2023-01-23T07:09:16;103770.69;;;3.86;100.00
54172;BME280;40076;52.354;4.970;2023-01-23T07:11:42;103777.25;;;3.83;100.00
54172;BME280;40076;52.354;4.970;2023-01-23T07:14:07;103784.66;;;3.81;100.00
54172;BME280;40076;52.354;4.970;2023-01-23T07:16:32;103784.66;;;3.81;100.00
54172;BME280;40076;52.354;4.970;2023-01-23T07:19:00;103781.38;;;3.79;100.00
54172;BME280;40076;52.354;4.970;2023-01-23T07:21:29;103783.88;;;3.81;100.00
54172;BME280;40076;52.354;4.970;2023-01-23T07:23:54;103785.72;;;3.80;100.00
54172;BME280;40076;52.354;4.970;2023-01-23T07:26:20;103789.22;;;3.81;100.00
54172;BME280;40076;52.354;4.970;2023-01-23T07:28:45;103789.59;;;3.78;100.00
54172;BME280;40076;52.354;4.970;2023-01-23T07:31:21;103785.09;;;3.78;100.00
54172;BME280;40076;52.354;4.970;2023-01-23T07:33:46;103791.44;;;3.77;100.00
54172;BME280;40076;52.354;4.970;2023-01-23T07:36:12;103801.53;;;3.75;100.00
54172;BME280;40076;52.354;4.970;2023-01-23T07:38:42;103802.34;;;3.76;100.00
54172;BME280;40076;52.354;4.970;2023-01-23T07:41:08;103804.00;;;3.77;100.00
54172;BME280;40076;52.354;4.970;2023-01-23T07:43:34;103804.00;;;3.77;100.00
54172;BME280;40076;52.354;4.970;2023-01-23T07:45:59;103805.84;;;3.76;100.00
54172;BME280;40076;52.354;4.970;2023-01-23T07:48:25;103801.53;;;3.75;100.00
54172;BME280;40076;52.354;4.970;2023-01-23T07:50:52;103798.66;;;3.77;100.00
54172;BME280;40076;52.354;4.970;2023-01-23T07:53:17;103813.03;;;3.76;100.00
54172;BME280;40076;52.354;4.970;2023-01-23T07:55:42;103815.72;;;3.76;100.00
54172;BME280;40076;52.354;4.970;2023-01-23T07:58:10;103819.22;;;3.76;100.00
54172;BME280;40076;52.354;4.970;2023-01-23T08:00:38;103812.84;;;3.77;100.00
54172;BME280;40076;52.354;4.970;2023-01-23T08:03:09;103813.88;;;3.76;100.00
54172;BME280;40076;52.354;4.970;2023-01-23T08:05:34;103814.69;;;3.77;100.00
54172;BME280;40076;52.354;4.970;2023-01-23T08:08:00;103816.34;;;3.78;100.00
54172;BME280;40076;52.354;4.970;2023-01-23T08:10:25;103825.00;;;3.80;100.00
54172;BME280;40076;52.354;4.970;2023-01-23T08:12:50;103826.84;;;3.79;100.00
54172;BME280;40076;52.354;4.970;2023-01-23T08:18:38;103832.00;;;3.81;100.00
54172;BME280;40076;52.354;4.970;2023-01-23T08:21:06;103834.69;;;3.81;100.00
54172;BME280;40076;52.354;4.970;2023-01-23T08:23:35;103851.34;;;3.83;100.00
54172;BME280;40076;52.354;4.970;2023-01-23T08:26:03;103853.19;;;3.82;100.00
54172;BME280;40076;52.354;4.970;2023-01-23T08:28:29;103854.00;;;3.83;100.00
54172;BME280;40076;52.354;4.970;2023-01-23T08:31:01;103862.22;;;3.81;100.00
54172;BME280;40076;52.354;4.970;2023-01-23T08:33:30;103868.41;;;3.82;100.00
54172;BME280;40076;52.354;4.970;2023-01-23T08:35:57;103870.06;;;3.83;100.00
54172;BME280;40076;52.354;4.970;2023-01-23T08:38:23;103868.22;;;3.83;100.00
54172;BME280;40076;52.354;4.970;2023-01-23T08:40:50;103866.16;;;3.85;100.00
54172;BME280;40076;52.354;4.970;2023-01-23T08:43:17;103866.16;;;3.85;100.00
54172;BME280;40076;52.354;4.970;2023-01-23T08:45:56;103868.66;;;3.87;100.00
54172;BME280;40076;52.354;4.970;2023-01-23T08:48:23;103871.13;;;3.88;100.00
54172;BME280;40076;52.354;4.970;2023-01-23T08:50:49;103866.59;;;3.89;100.00
54172;BME280;40076;52.354;4.970;2023-01-23T08:53:16;103868.22;;;3.90;100.00
54172;BME280;40076;52.354;4.970;2023-01-23T08:55:41;103874.22;;;3.92;100.00
54172;BME280;40076;52.354;4.970;2023-01-23T08:58:08;103868.88;;;3.92;100.00
54172;BME280;40076;52.354;4.970;2023-01-23T09:00:37;103883.06;;;3.93;100.00
54172;BME280;40076;52.354;4.970;2023-01-23T09:03:03;103876.69;;;3.94;100.00
54172;BME280;40076;52.354;4.970;2023-01-23T09:05:32;103881.84;;;3.95;100.00
54172;BME280;40076;52.354;4.970;2023-01-23T09:08:01;103883.50;;;3.96;100.00
54172;BME280;40076;52.354;4.970;2023-01-23T09:10:27;103879.00;;;3.97;100.00
54172;BME280;40076;52.354;4.970;2023-01-23T09:12:53;103885.13;;;3.97;100.00
54172;BME280;40076;52.354;4.970;2023-01-23T09:15:19;103884.75;;;4.00;100.00
54172;BME280;40076;52.354;4.970;2023-01-23T09:18:00;103883.91;;;4.00;100.00
54172;BME280;40076;52.354;4.970;2023-01-23T09:20:28;103883.91;;;4.00;100.00
54172;BME280;40076;52.354;4.970;2023-01-23T09:22:54;103887.22;;;4.02;100.00
54172;BME280;40076;52.354;4.970;2023-01-23T09:25:20;103885.38;;;4.02;100.00
54172;BME280;40076;52.354;4.970;2023-01-23T09:27:48;103887.88;;;4.04;100.00
54172;BME280;40076;52.354;4.970;2023-01-23T09:30:17;103891.38;;;4.04;100.00
54172;BME280;40076;52.354;4.970;2023-01-23T09:32:45;103894.84;;;4.05;100.00
54172;BME280;40076;52.354;4.970;2023-01-23T09:35:10;103891.38;;;4.04;100.00
54172;BME280;40076;52.354;4.970;2023-01-23T09:37:36;103892.16;;;4.05;100.00
54172;BME280;40076;52.354;4.970;2023-01-23T09:40:23;103891.97;;;4.06;100.00
54172;BME280;40076;52.354;4.970;2023-01-23T09:42:50;103891.13;;;4.06;100.00
54172;BME280;40076;52.354;4.970;2023-01-23T09:45:21;103899.16;;;4.06;100.00
54172;BME280;40076;52.354;4.970;2023-01-23T09:48:28;103899.16;;;4.06;100.00
54172;BME280;40076;52.354;4.970;2023-01-23T09:51:01;103910.88;;;4.05;100.00
54172;BME280;40076;52.354;4.970;2023-01-23T09:53:37;103905.53;;;4.05;100.00
54172;BME280;40076;52.354;4.970;2023-01-23T09:56:18;103902.88;;;4.05;100.00
54172;BME280;40076;52.354;4.970;2023-01-23T09:59:10;103900.81;;;4.07;100.00
54172;BME280;40076;52.354;4.970;2023-01-23T10:01:37;103906.19;;;4.07;100.00
54172;BME280;40076;52.354;4.970;2023-01-23T10:04:09;103901.66;;;4.07;100.00
54172;BME280;40076;52.354;4.970;2023-01-23T10:07:22;103893.22;;;4.10;100.00
54172;BME280;40076;52.354;4.970;2023-01-23T10:12:46;103895.09;;;4.10;100.00
54172;BME280;40076;52.354;4.970;2023-01-23T10:18:34;103895.50;;;4.13;100.00
54172;BME280;40076;52.354;4.970;2023-01-23T10:23:50;103883.56;;;4.09;100.00
54172;BME280;40076;52.354;4.970;2023-01-23T10:26:30;103882.53;;;4.10;100.00
54172;BME280;40076;52.354;4.970;2023-01-23T10:31:54;103883.34;;;4.11;100.00
54172;BME280;40076;52.354;4.970;2023-01-23T10:34:52;103882.09;;;4.13;100.00
54172;BME280;40076;52.354;4.970;2023-01-23T10:37:39;103878.41;;;4.14;100.00
54172;BME280;40076;52.354;4.970;2023-01-23T10:40:13;103881.69;;;4.10;100.00
54172;BME280;40076;52.354;4.970;2023-01-23T10:42:39;103884.59;;;4.15;100.00
54172;BME280;40076;52.354;4.970;2023-01-23T10:45:05;103880.69;;;4.17;100.00
54172;BME280;40076;52.354;4.970;2023-01-23T10:47:44;103886.44;;;4.21;100.00
54172;BME280;40076;52.354;4.970;2023-01-23T10:50:11;103882.75;;;4.22;100.00
54172;BME280;40076;52.354;4.970;2023-01-23T10:52:42;103888.75;;;4.24;100.00
54172;BME280;40076;52.354;4.970;2023-01-23T10:57:54;103883.19;;;4.25;100.00
54172;BME280;40076;52.354;4.970;2023-01-23T11:00:29;103883.78;;;4.27;100.00
54172;BME280;40076;52.354;4.970;2023-01-23T11:05:54;103886.91;;;4.31;100.00
54172;BME280;40076;52.354;4.970;2023-01-23T11:09:17;103883.59;;;4.29;100.00
54172;BME280;40076;52.354;4.970;2023-01-23T11:11:42;103891.44;;;4.31;100.00
54172;BME280;40076;52.354;4.970;2023-01-23T11:14:13;103895.75;;;4.32;100.00
54172;BME280;40076;52.354;4.970;2023-01-23T11:16:41;103898.25;;;4.33;100.00
54172;BME280;40076;52.354;4.970;2023-01-23T11:21:58;103899.47;;;4.37;100.00
54172;BME280;40076;52.354;4.970;2023-01-23T11:24:34;103886.72;;;4.39;100.00
54172;BME280;40076;52.354;4.970;2023-01-23T11:27:16;103889.19;;;4.41;100.00
54172;BME280;40076;52.354;4.970;2023-01-23T11:32:40;103879.91;;;4.43;100.00
54172;BME280;40076;52.354;4.970;2023-01-23T11:35:26;103877.88;;;4.45;100.00
54172;BME280;40076;52.354;4.970;2023-01-23T11:37:54;103882.81;;;4.48;100.00
54172;BME280;40076;52.354;4.970;2023-01-23T11:40:21;103880.75;;;4.50;100.00
54172;BME280;40076;52.354;4.970;2023-01-23T11:42:47;103883.66;;;4.49;100.00
54172;BME280;40076;52.354;4.970;2023-01-23T11:45:32;103878.69;;;4.52;100.00
54172;BME280;40076;52.354;4.970;2023-01-23T11:50:49;103874.38;;;4.58;100.00
54172;BME280;40076;52.354;4.970;2023-01-23T11:59:10;103876.84;;;4.53;100.00
54172;BME280;40076;52.354;4.970;2023-01-23T12:02:18;103877.03;;;4.51;100.00
54172;BME280;40076;52.354;4.970;2023-01-23T12:07:25;103880.56;;;4.52;100.00
54172;BME280;40076;52.354;4.970;2023-01-23T12:10:25;103880.75;;;4.50;100.00
54172;BME280;40076;52.354;4.970;2023-01-23T12:15:27;103876.03;;;4.52;100.00
54172;BME280;40076;52.354;4.970;2023-01-23T12:18:27;103872.31;;;4.53;100.00
54172;BME280;40076;52.354;4.970;2023-01-23T12:21:07;103870.03;;;4.50;100.00
54172;BME280;40076;52.354;4.970;2023-01-23T12:26:47;103877.28;;;4.50;100.00
54172;BME280;40076;52.354;4.970;2023-01-23T12:29:38;103880.75;;;4.50;100.00
54172;BME280;40076;52.354;4.970;2023-01-23T12:32:27;103888.59;;;4.52;100.00
54172;BME280;40076;52.354;4.970;2023-01-23T12:35:10;103902.41;;;4.49;100.00
54172;BME280;40076;52.354;4.970;2023-01-23T12:38:15;103910.63;;;4.47;100.00
54172;BME280;40076;52.354;4.970;2023-01-23T12:40:49;103907.53;;;4.50;100.00
54172;BME280;40076;52.354;4.970;2023-01-23T12:43:29;103902.81;;;4.52;100.00
54172;BME280;40076;52.354;4.970;2023-01-23T12:46:04;103899.72;;;4.55;100.00
54172;BME280;40076;52.354;4.970;2023-01-23T12:48:42;103902.22;;;4.57;100.00
54172;BME280;40076;52.354;4.970;2023-01-23T12:51:19;103902.22;;;4.57;100.00
54172;BME280;40076;52.354;4.970;2023-01-23T12:53:50;103893.94;;;4.58;100.00
54172;BME280;40076;52.354;4.970;2023-01-23T12:56:19;103883.25;;;4.58;100.00
54172;BME280;40076;52.354;4.970;2023-01-23T13:02:01;103886.34;;;4.62;100.00
54172;BME280;40076;52.354;4.970;2023-01-23T13:05:01;103886.34;;;4.62;100.00
54172;BME280;40076;52.354;4.970;2023-01-23T13:08:00;103885.31;;;4.63;100.00
54172;BME280;40076;52.354;4.970;2023-01-23T13:11:17;103880.78;;;4.63;100.00
54172;BME280;40076;52.354;4.970;2023-01-23T13:14:01;103883.66;;;4.62;100.00
54172;BME280;40076;52.354;4.970;2023-01-23T13:16:30;103875.22;;;4.65;100.00
54172;BME280;40076;52.354;4.970;2023-01-23T13:18:58;103869.88;;;4.65;100.00
54172;BME280;40076;52.354;4.970;2023-01-23T13:24:46;103873.59;;;4.71;100.00
54172;BME280;40076;52.354;4.970;2023-01-23T13:27:50;103867.59;;;4.69;100.00
54172;BME280;40076;52.354;4.970;2023-01-23T13:33:00;103870.06;;;4.70;100.00
54172;BME280;40076;52.354;4.970;2023-01-23T13:35:51;103861.41;;;4.68;100.00
54172;BME280;40076;52.354;4.970;2023-01-23T13:46:26;103836.72;;;4.73;100.00
54172;BME280;40076;52.354;4.970;2023-01-23T13:48:58;103821.66;;;4.72;100.00
54172;BME280;40076;52.354;4.970;2023-01-23T13:51:47;103826.41;;;4.70;100.00
54172;BME280;40076;52.354;4.970;2023-01-23T13:54:14;103818.34;;;4.70;100.00
54172;BME280;40076;52.354;4.970;2023-01-23T13:57:01;103814.22;;;4.67;100.00
54172;BME280;40076;52.354;4.970;2023-01-23T13:59:55;103819.00;;;4.65;100.00
54172;BME280;40076;52.354;4.970;2023-01-23T14:05:19;103811.56;;;4.60;100.00
54172;BME280;40076;52.354;4.970;2023-01-23T14:07:47;103814.44;;;4.59;100.00
54172;BME280;40076;52.354;4.970;2023-01-23T14:12:50;103813.22;;;4.61;100.00
54172;BME280;40076;52.354;4.970;2023-01-23T14:15:32;103812.19;;;4.62;100.00
54172;BME280;40076;52.354;4.970;2023-01-23T14:18:38;103828.06;;;4.64;100.00
54172;BME280;40076;52.354;4.970;2023-01-23T14:21:21;103827.22;;;4.63;100.00
54172;BME280;40076;52.354;4.970;2023-01-23T14:23:56;103839.59;;;4.64;100.00
54172;BME280;40076;52.354;4.970;2023-01-23T14:26:33;103839.34;;;4.66;100.00